sensor_id;sensor_type;location;lat;lon;timestamp;P1;durP1;ratioP1;P2;durP2;ratioP2
11964;SDS011;6042;41.326;19.826;2023-07-31T00:01:54;9.93;;;3.60;;
11964;SDS011;6042;41.326;19.826;2023-07-31T00:04:23;5.73;;;2.87;;
11964;SDS011;6042;41.326;19.826;2023-07-31T00:06:53;6.57;;;3.60;;
11964;SDS011;6042;41.326;19.826;2023-07-31T00:09:21;7.87;;;3.57;;
11964;SDS011;6042;41.326;19.826;2023-07-31T00:11:50;3.97;;;2.73;;
11964;SDS011;6042;41.326;19.826;2023-07-31T00:14:19;7.20;;;3.57;;
11964;SDS011;6042;41.326;19.826;2023-07-31T00:16:47;3.23;;;2.63;;
11964;SDS011;6042;41.326;19.826;2023-07-31T00:19:18;4.20;;;2.93;;
11964;SDS011;6042;41.326;19.826;2023-07-31T00:21:46;2.90;;;2.50;;
11964;SDS011;6042;41.326;19.826;2023-07-31T00:24:17;4.83;;;2.87;;
11964;SDS011;6042;41.326;19.826;2023-07-31T00:26:45;3.20;;;2.97;;
11964;SDS011;6042;41.326;19.826;2023-07-31T00:29:14;4.57;;;2.70;;
11964;SDS011;6042;41.326;19.826;2023-07-31T00:31:42;7.33;;;3.00;;
11964;SDS011;6042;41.326;19.826;2023-07-31T00:34:11;3.87;;;2.97;;
11964;SDS011;6042;41.326;19.826;2023-07-31T00:36:39;4.77;;;2.90;;
11964;SDS011;6042;41.326;19.826;2023-07-31T00:39:08;3.47;;;2.87;;
11964;SDS011;6042;41.326;19.826;2023-07-31T00:41:38;5.93;;;3.20;;
11964;SDS011;6042;41.326;19.826;2023-07-31T00:44:06;6.83;;;3.20;;
11964;SDS011;6042;41.326;19.826;2023-07-31T00:46:35;6.57;;;3.20;;
11964;SDS011;6042;41.326;19.826;2023-07-31T00:49:04;3.83;;;3.10;;
11964;SDS011;6042;41.326;19.826;2023-07-31T00:51:33;5.23;;;2.97;;
11964;SDS011;6042;41.326;19.826;2023-07-31T00:54:02;3.43;;;2.70;;
11964;SDS011;6042;41.326;19.826;2023-07-31T00:56:31;4.43;;;2.93;;
11964;SDS011;6042;41.326;19.826;2023-07-31T00:59:02;3.30;;;2.77;;
11964;SDS011;6042;41.326;19.826;2023-07-31T01:01:32;5.40;;;2.70;;
11964;SDS011;6042;41.326;19.826;2023-07-31T01:04:02;6.30;;;3.00;;
11964;SDS011;6042;41.326;19.826;2023-07-31T01:06:33;5.87;;;3.07;;
11964;SDS011;6042;41.326;19.826;2023-07-31T01:09:10;10.97;;;3.70;;
11964;SDS011;6042;41.326;19.826;2023-07-31T01:11:47;3.80;;;2.93;;
11964;SDS011;6042;41.326;19.826;2023-07-31T01:14:22;3.20;;;2.73;;
11964;SDS011;6042;41.326;19.826;2023-07-31T01:16:50;5.37;;;2.90;;
11964;SDS011;6042;41.326;19.826;2023-07-31T01:19:22;7.10;;;3.00;;
11964;SDS011;6042;41.326;19.826;2023-07-31T01:21:59;5.87;;;2.80;;
11964;SDS011;6042;41.326;19.826;2023-07-31T01:24:59;3.67;;;3.00;;
11964;SDS011;6042;41.326;19.826;2023-07-31T01:27:44;5.20;;;2.93;;
11964;SDS011;6042;41.326;19.826;2023-07-31T01:30:21;4.90;;;3.03;;
11964;SDS011;6042;41.326;19.826;2023-07-31T01:32:53;6.47;;;3.47;;
11964;SDS011;6042;41.326;19.826;2023-07-31T01:35:24;6.33;;;2.90;;
11964;SDS011;6042;41.326;19.826;2023-07-31T01:37:53;3.70;;;3.00;;
11964;SDS011;6042;41.326;19.826;2023-07-31T01:40:21;3.43;;;2.70;;
11964;SDS011;6042;41.326;19.826;2023-07-31T01:42:51;7.07;;;3.20;;
11964;SDS011;6042;41.326;19.826;2023-07-31T01:45:20;3.97;;;3.00;;
11964;SDS011;6042;41.326;19.826;2023-07-31T01:47:48;7.07;;;2.97;;
11964;SDS011;6042;41.326;19.826;2023-07-31T01:50:17;3.30;;;3.00;;
11964;SDS011;6042;41.326;19.826;2023-07-31T01:52:46;5.23;;;3.20;;
11964;SDS011;6042;41.326;19.826;2023-07-31T01:55:14;3.10;;;2.87;;
11964;SDS011;6042;41.326;19.826;2023-07-31T01:57:43;6.83;;;2.70;;
11964;SDS011;6042;41.326;19.826;2023-07-31T02:00:13;5.20;;;3.03;;
11964;SDS011;6042;41.326;19.826;2023-07-31T02:02:43;3.70;;;2.87;;
11964;SDS011;6042;41.326;19.826;2023-07-31T02:05:11;2.97;;;2.70;;
11964;SDS011;6042;41.326;19.826;2023-07-31T02:07:40;4.50;;;2.90;;
11964;SDS011;6042;41.326;19.826;2023-07-31T02:10:09;3.10;;;2.57;;
11964;SDS011;6042;41.326;19.826;2023-07-31T02:12:37;4.47;;;2.90;;
11964;SDS011;6042;41.326;19.826;2023-07-31T02:15:06;3.67;;;2.83;;
11964;SDS011;6042;41.326;19.826;2023-07-31T02:17:36;4.43;;;2.70;;
11964;SDS011;6042;41.326;19.826;2023-07-31T02:20:06;4.57;;;2.73;;
11964;SDS011;6042;41.326;19.826;2023-07-31T02:22:36;3.87;;;2.93;;
11964;SDS011;6042;41.326;19.826;2023-07-31T02:25:04;4.47;;;3.00;;
11964;SDS011;6042;41.326;19.826;2023-07-31T02:27:33;3.20;;;2.87;;
11964;SDS011;6042;41.326;19.826;2023-07-31T02:30:02;3.13;;;2.90;;
11964;SDS011;6042;41.326;19.826;2023-07-31T02:32:31;3.17;;;2.87;;
11964;SDS011;6042;41.326;19.826;2023-07-31T02:35:01;4.00;;;3.00;;
11964;SDS011;6042;41.326;19.826;2023-07-31T02:37:30;3.47;;;3.00;;
11964;SDS011;6042;41.326;19.826;2023-07-31T02:39:59;3.30;;;3.00;;
11964;SDS011;6042;41.326;19.826;2023-07-31T02:42:28;3.47;;;3.00;;
11964;SDS011;6042;41.326;19.826;2023-07-31T02:44:56;3.00;;;2.70;;
11964;SDS011;6042;41.326;19.826;2023-07-31T02:47:25;3.63;;;3.03;;
11964;SDS011;6042;41.326;19.826;2023-07-31T02:49:54;3.63;;;3.00;;
11964;SDS011;6042;41.326;19.826;2023-07-31T02:52:25;3.80;;;3.00;;
11964;SDS011;6042;41.326;19.826;2023-07-31T02:54:54;3.80;;;3.10;;
11964;SDS011;6042;41.326;19.826;2023-07-31T02:57:22;4.33;;;3.07;;
11964;SDS011;6042;41.326;19.826;2023-07-31T02:59:51;3.87;;;2.87;;
11964;SDS011;6042;41.326;19.826;2023-07-31T03:02:19;3.83;;;3.20;;
11964;SDS011;6042;41.326;19.826;2023-07-31T03:04:48;5.20;;;3.27;;
11964;SDS011;6042;41.326;19.826;2023-07-31T03:07:17;5.20;;;3.33;;
11964;SDS011;6042;41.326;19.826;2023-07-31T03:09:46;10.63;;;3.33;;
11964;SDS011;6042;41.326;19.826;2023-07-31T03:12:15;4.67;;;3.40;;
11964;SDS011;6042;41.326;19.826;2023-07-31T03:14:44;5.40;;;2.73;;
11964;SDS011;6042;41.326;19.826;2023-07-31T03:17:12;3.23;;;2.93;;
11964;SDS011;6042;41.326;19.826;2023-07-31T03:19:41;3.50;;;3.03;;
11964;SDS011;6042;41.326;19.826;2023-07-31T03:22:09;3.53;;;2.87;;
11964;SDS011;6042;41.326;19.826;2023-07-31T03:24:38;4.80;;;3.07;;
11964;SDS011;6042;41.326;19.826;2023-07-31T03:27:08;3.63;;;2.83;;
11964;SDS011;6042;41.326;19.826;2023-07-31T03:29:36;3.27;;;2.97;;
11964;SDS011;6042;41.326;19.826;2023-07-31T03:32:05;3.13;;;2.83;;
11964;SDS011;6042;41.326;19.826;2023-07-31T03:34:35;4.73;;;2.80;;
11964;SDS011;6042;41.326;19.826;2023-07-31T03:37:05;2.80;;;2.40;;
11964;SDS011;6042;41.326;19.826;2023-07-31T03:39:35;5.10;;;3.13;;
11964;SDS011;6042;41.326;19.826;2023-07-31T03:42:04;3.50;;;2.93;;
11964;SDS011;6042;41.326;19.826;2023-07-31T03:44:35;4.10;;;3.07;;
11964;SDS011;6042;41.326;19.826;2023-07-31T03:47:04;4.07;;;2.93;;
11964;SDS011;6042;41.326;19.826;2023-07-31T03:49:33;4.43;;;3.00;;
11964;SDS011;6042;41.326;19.826;2023-07-31T03:52:02;3.53;;;3.07;;
11964;SDS011;6042;41.326;19.826;2023-07-31T03:54:31;4.20;;;3.40;;
11964;SDS011;6042;41.326;19.826;2023-07-31T03:56:59;5.17;;;3.10;;
11964;SDS011;6042;41.326;19.826;2023-07-31T03:59:27;3.63;;;2.70;;
11964;SDS011;6042;41.326;19.826;2023-07-31T04:01:57;2.87;;;2.67;;
11964;SDS011;6042;41.326;19.826;2023-07-31T04:04:26;5.70;;;3.30;;
11964;SDS011;6042;41.326;19.826;2023-07-31T04:06:54;7.53;;;2.93;;
11964;SDS011;6042;41.326;19.826;2023-07-31T04:09:23;6.53;;;3.50;;
11964;SDS011;6042;41.326;19.826;2023-07-31T04:11:51;4.23;;;3.10;;
11964;SDS011;6042;41.326;19.826;2023-07-31T04:14:20;6.83;;;3.20;;
11964;SDS011;6042;41.326;19.826;2023-07-31T04:16:48;5.23;;;3.13;;
11964;SDS011;6042;41.326;19.826;2023-07-31T04:19:20;4.50;;;2.93;;
11964;SDS011;6042;41.326;19.826;2023-07-31T04:21:49;5.70;;;3.30;;
11964;SDS011;6042;41.326;19.826;2023-07-31T04:24:17;7.73;;;3.70;;
11964;SDS011;6042;41.326;19.826;2023-07-31T04:26:51;5.37;;;3.43;;
11964;SDS011;6042;41.326;19.826;2023-07-31T04:29:20;4.80;;;3.20;;
11964;SDS011;6042;41.326;19.826;2023-07-31T04:31:48;7.10;;;3.70;;
11964;SDS011;6042;41.326;19.826;2023-07-31T04:34:17;9.97;;;4.30;;
11964;SDS011;6042;41.326;19.826;2023-07-31T04:36:47;6.17;;;3.57;;
11964;SDS011;6042;41.326;19.826;2023-07-31T04:39:15;7.70;;;3.33;;
11964;SDS011;6042;41.326;19.826;2023-07-31T04:41:44;5.33;;;3.53;;
11964;SDS011;6042;41.326;19.826;2023-07-31T04:44:12;6.00;;;3.20;;
11964;SDS011;6042;41.326;19.826;2023-07-31T04:46:41;13.30;;;3.60;;
11964;SDS011;6042;41.326;19.826;2023-07-31T04:49:10;6.47;;;3.07;;
11964;SDS011;6042;41.326;19.826;2023-07-31T04:51:39;5.53;;;3.40;;
11964;SDS011;6042;41.326;19.826;2023-07-31T04:54:09;9.43;;;3.77;;
11964;SDS011;6042;41.326;19.826;2023-07-31T04:56:39;5.63;;;3.30;;
11964;SDS011;6042;41.326;19.826;2023-07-31T04:59:07;7.73;;;3.30;;
11964;SDS011;6042;41.326;19.826;2023-07-31T05:01:36;4.77;;;3.03;;
11964;SDS011;6042;41.326;19.826;2023-07-31T05:04:04;7.50;;;3.67;;
11964;SDS011;6042;41.326;19.826;2023-07-31T05:06:33;4.10;;;3.23;;
11964;SDS011;6042;41.326;19.826;2023-07-31T05:09:02;4.97;;;3.20;;
11964;SDS011;6042;41.326;19.826;2023-07-31T05:11:32;6.73;;;3.03;;
11964;SDS011;6042;41.326;19.826;2023-07-31T05:14:02;8.90;;;3.33;;
11964;SDS011;6042;41.326;19.826;2023-07-31T05:16:31;4.67;;;3.20;;
11964;SDS011;6042;41.326;19.826;2023-07-31T05:18:59;8.13;;;3.40;;
11964;SDS011;6042;41.326;19.826;2023-07-31T05:21:28;7.27;;;3.67;;
11964;SDS011;6042;41.326;19.826;2023-07-31T05:23:56;6.43;;;3.33;;
11964;SDS011;6042;41.326;19.826;2023-07-31T05:26:25;7.20;;;3.27;;
11964;SDS011;6042;41.326;19.826;2023-07-31T05:28:55;6.93;;;3.40;;
11964;SDS011;6042;41.326;19.826;2023-07-31T05:31:25;7.40;;;3.60;;
11964;SDS011;6042;41.326;19.826;2023-07-31T05:33:53;8.57;;;3.50;;
11964;SDS011;6042;41.326;19.826;2023-07-31T05:36:22;10.63;;;3.70;;
11964;SDS011;6042;41.326;19.826;2023-07-31T05:38:50;3.60;;;2.87;;
11964;SDS011;6042;41.326;19.826;2023-07-31T05:41:19;6.63;;;3.10;;
11964;SDS011;6042;41.326;19.826;2023-07-31T05:43:47;5.60;;;3.57;;
11964;SDS011;6042;41.326;19.826;2023-07-31T05:46:18;5.60;;;3.50;;
11964;SDS011;6042;41.326;19.826;2023-07-31T05:48:46;5.43;;;3.70;;
11964;SDS011;6042;41.326;19.826;2023-07-31T05:51:15;7.87;;;3.33;;
11964;SDS011;6042;41.326;19.826;2023-07-31T05:53:43;5.27;;;3.53;;
11964;SDS011;6042;41.326;19.826;2023-07-31T05:56:12;7.97;;;3.33;;
11964;SDS011;6042;41.326;19.826;2023-07-31T05:58:40;7.47;;;3.20;;
11964;SDS011;6042;41.326;19.826;2023-07-31T06:01:09;5.45;;;3.58;;
11964;SDS011;6042;41.326;19.826;2023-07-31T06:03:39;4.43;;;3.05;;
11964;SDS011;6042;41.326;19.826;2023-07-31T06:06:08;5.83;;;3.60;;
11964;SDS011;6042;41.326;19.826;2023-07-31T06:08:36;7.03;;;3.53;;
11964;SDS011;6042;41.326;19.826;2023-07-31T06:11:06;4.68;;;3.58;;
11964;SDS011;6042;41.326;19.826;2023-07-31T06:13:35;9.45;;;3.47;;
11964;SDS011;6042;41.326;19.826;2023-07-31T06:16:06;9.18;;;4.15;;
11964;SDS011;6042;41.326;19.826;2023-07-31T06:18:34;4.13;;;3.33;;
11964;SDS011;6042;41.326;19.826;2023-07-31T06:21:06;8.43;;;4.25;;
11964;SDS011;6042;41.326;19.826;2023-07-31T06:23:34;8.98;;;3.90;;
11964;SDS011;6042;41.326;19.826;2023-07-31T06:26:03;4.30;;;3.58;;
11964;SDS011;6042;41.326;19.826;2023-07-31T06:28:31;5.75;;;3.78;;
11964;SDS011;6042;41.326;19.826;2023-07-31T06:31:00;10.50;;;4.13;;
11964;SDS011;6042;41.326;19.826;2023-07-31T06:33:29;5.85;;;3.60;;
11964;SDS011;6042;41.326;19.826;2023-07-31T06:35:57;8.85;;;3.65;;
11964;SDS011;6042;41.326;19.826;2023-07-31T06:38:29;12.20;;;5.25;;
11964;SDS011;6042;41.326;19.826;2023-07-31T06:40:57;7.00;;;3.83;;
11964;SDS011;6042;41.326;19.826;2023-07-31T06:43:26;3.28;;;2.97;;
11964;SDS011;6042;41.326;19.826;2023-07-31T06:45:55;4.82;;;2.85;;
11964;SDS011;6042;41.326;19.826;2023-07-31T06:48:24;4.78;;;2.90;;
11964;SDS011;6042;41.326;19.826;2023-07-31T06:50:52;3.30;;;2.63;;
11964;SDS011;6042;41.326;19.826;2023-07-31T06:53:21;3.42;;;2.25;;
11964;SDS011;6042;41.326;19.826;2023-07-31T06:55:51;6.60;;;3.35;;
11964;SDS011;6042;41.326;19.826;2023-07-31T06:58:22;5.35;;;3.10;;
11964;SDS011;6042;41.326;19.826;2023-07-31T07:00:51;4.55;;;3.15;;
11964;SDS011;6042;41.326;19.826;2023-07-31T07:03:19;5.80;;;3.20;;
11964;SDS011;6042;41.326;19.826;2023-07-31T07:05:48;4.65;;;2.80;;
11964;SDS011;6042;41.326;19.826;2023-07-31T07:08:17;4.43;;;3.22;;
11964;SDS011;6042;41.326;19.826;2023-07-31T07:10:45;3.80;;;2.90;;
11964;SDS011;6042;41.326;19.826;2023-07-31T07:13:16;8.18;;;3.47;;
11964;SDS011;6042;41.326;19.826;2023-07-31T07:15:47;9.77;;;3.70;;
11964;SDS011;6042;41.326;19.826;2023-07-31T07:18:16;11.05;;;5.10;;
11964;SDS011;6042;41.326;19.826;2023-07-31T07:20:46;7.03;;;3.47;;
11964;SDS011;6042;41.326;19.826;2023-07-31T07:23:15;5.15;;;3.45;;
11964;SDS011;6042;41.326;19.826;2023-07-31T07:25:44;4.35;;;2.70;;
11964;SDS011;6042;41.326;19.826;2023-07-31T07:28:13;9.43;;;3.42;;
11964;SDS011;6042;41.326;19.826;2023-07-31T07:30:43;7.78;;;3.58;;
11964;SDS011;6042;41.326;19.826;2023-07-31T07:33:12;10.10;;;3.13;;
11964;SDS011;6042;41.326;19.826;2023-07-31T07:35:40;6.10;;;3.13;;
11964;SDS011;6042;41.326;19.826;2023-07-31T07:38:09;7.22;;;2.92;;
11964;SDS011;6042;41.326;19.826;2023-07-31T07:40:38;10.68;;;4.20;;
11964;SDS011;6042;41.326;19.826;2023-07-31T07:43:07;7.05;;;2.88;;
11964;SDS011;6042;41.326;19.826;2023-07-31T07:45:38;6.90;;;3.35;;
11964;SDS011;6042;41.326;19.826;2023-07-31T07:48:06;7.40;;;2.92;;
11964;SDS011;6042;41.326;19.826;2023-07-31T07:50:35;5.65;;;3.17;;
11964;SDS011;6042;41.326;19.826;2023-07-31T07:53:06;5.57;;;2.95;;
11964;SDS011;6042;41.326;19.826;2023-07-31T07:55:35;5.95;;;2.97;;
11964;SDS011;6042;41.326;19.826;2023-07-31T07:58:06;6.35;;;2.85;;
11964;SDS011;6042;41.326;19.826;2023-07-31T08:00:35;6.13;;;2.72;;
11964;SDS011;6042;41.326;19.826;2023-07-31T08:03:06;4.93;;;2.70;;
11964;SDS011;6042;41.326;19.826;2023-07-31T08:05:34;4.40;;;3.05;;
11964;SDS011;6042;41.326;19.826;2023-07-31T08:08:04;8.27;;;3.10;;
11964;SDS011;6042;41.326;19.826;2023-07-31T08:10:32;4.40;;;3.05;;
11964;SDS011;6042;41.326;19.826;2023-07-31T08:13:01;10.73;;;3.55;;
11964;SDS011;6042;41.326;19.826;2023-07-31T08:15:30;7.80;;;3.40;;
11964;SDS011;6042;41.326;19.826;2023-07-31T08:18:00;4.95;;;2.60;;
11964;SDS011;6042;41.326;19.826;2023-07-31T08:20:28;5.40;;;3.08;;
11964;SDS011;6042;41.326;19.826;2023-07-31T08:22:57;6.22;;;3.35;;
11964;SDS011;6042;41.326;19.826;2023-07-31T08:25:25;7.00;;;3.85;;
11964;SDS011;6042;41.326;19.826;2023-07-31T08:27:54;6.65;;;3.45;;
11964;SDS011;6042;41.326;19.826;2023-07-31T08:30:23;10.65;;;4.13;;
11964;SDS011;6042;41.326;19.826;2023-07-31T08:32:52;9.10;;;3.38;;
11964;SDS011;6042;41.326;19.826;2023-07-31T08:35:22;12.13;;;4.55;;
11964;SDS011;6042;41.326;19.826;2023-07-31T08:37:51;5.90;;;4.30;;
11964;SDS011;6042;41.326;19.826;2023-07-31T08:40:20;8.13;;;3.28;;
11964;SDS011;6042;41.326;19.826;2023-07-31T08:42:49;7.95;;;3.75;;
11964;SDS011;6042;41.326;19.826;2023-07-31T08:45:22;4.88;;;3.30;;
11964;SDS011;6042;41.326;19.826;2023-07-31T08:47:51;6.43;;;3.45;;
11964;SDS011;6042;41.326;19.826;2023-07-31T08:50:20;5.82;;;3.63;;
11964;SDS011;6042;41.326;19.826;2023-07-31T08:52:51;5.30;;;3.25;;
11964;SDS011;6042;41.326;19.826;2023-07-31T08:55:23;6.20;;;3.58;;
11964;SDS011;6042;41.326;19.826;2023-07-31T08:57:53;6.88;;;3.63;;
11964;SDS011;6042;41.326;19.826;2023-07-31T09:00:23;5.38;;;3.50;;
11964;SDS011;6042;41.326;19.826;2023-07-31T09:02:55;7.22;;;3.53;;
11964;SDS011;6042;41.326;19.826;2023-07-31T09:05:31;5.53;;;3.85;;
11964;SDS011;6042;41.326;19.826;2023-07-31T09:08:00;3.65;;;3.28;;
11964;SDS011;6042;41.326;19.826;2023-07-31T09:10:32;5.10;;;3.22;;
11964;SDS011;6042;41.326;19.826;2023-07-31T09:13:00;4.55;;;3.22;;
11964;SDS011;6042;41.326;19.826;2023-07-31T09:15:30;7.32;;;3.58;;
11964;SDS011;6042;41.326;19.826;2023-07-31T09:18:05;6.10;;;3.47;;
11964;SDS011;6042;41.326;19.826;2023-07-31T09:20:36;6.35;;;4.03;;
11964;SDS011;6042;41.326;19.826;2023-07-31T09:23:05;6.97;;;4.05;;
11964;SDS011;6042;41.326;19.826;2023-07-31T09:25:38;5.25;;;3.50;;
11964;SDS011;6042;41.326;19.826;2023-07-31T09:28:08;4.20;;;3.05;;
11964;SDS011;6042;41.326;19.826;2023-07-31T09:30:44;5.97;;;3.70;;
11964;SDS011;6042;41.326;19.826;2023-07-31T09:33:15;3.67;;;3.15;;
11964;SDS011;6042;41.326;19.826;2023-07-31T09:35:46;7.78;;;3.58;;
11964;SDS011;6042;41.326;19.826;2023-07-31T09:38:15;7.57;;;3.20;;
11964;SDS011;6042;41.326;19.826;2023-07-31T09:40:45;8.07;;;5.20;;
11964;SDS011;6042;41.326;19.826;2023-07-31T09:43:17;4.78;;;3.72;;
11964;SDS011;6042;41.326;19.826;2023-07-31T09:45:46;4.60;;;3.25;;
11964;SDS011;6042;41.326;19.826;2023-07-31T09:48:16;5.57;;;3.60;;
11964;SDS011;6042;41.326;19.826;2023-07-31T09:50:47;7.82;;;3.70;;
11964;SDS011;6042;41.326;19.826;2023-07-31T09:53:17;5.43;;;3.40;;
11964;SDS011;6042;41.326;19.826;2023-07-31T09:55:45;6.38;;;3.50;;
11964;SDS011;6042;41.326;19.826;2023-07-31T09:58:14;3.83;;;3.10;;
11964;SDS011;6042;41.326;19.826;2023-07-31T10:00:42;6.75;;;3.97;;
11964;SDS011;6042;41.326;19.826;2023-07-31T10:03:12;8.55;;;3.75;;
11964;SDS011;6042;41.326;19.826;2023-07-31T10:05:43;5.45;;;3.95;;
11964;SDS011;6042;41.326;19.826;2023-07-31T10:08:18;4.32;;;3.38;;
11964;SDS011;6042;41.326;19.826;2023-07-31T10:10:49;6.40;;;4.05;;
11964;SDS011;6042;41.326;19.826;2023-07-31T10:13:17;5.18;;;3.20;;
11964;SDS011;6042;41.326;19.826;2023-07-31T10:15:49;5.70;;;3.70;;
11964;SDS011;6042;41.326;19.826;2023-07-31T10:18:21;3.88;;;3.28;;
11964;SDS011;6042;41.326;19.826;2023-07-31T10:20:58;3.70;;;3.25;;
11964;SDS011;6042;41.326;19.826;2023-07-31T10:23:27;3.88;;;3.40;;
11964;SDS011;6042;41.326;19.826;2023-07-31T10:25:56;5.32;;;3.50;;
11964;SDS011;6042;41.326;19.826;2023-07-31T10:28:26;5.25;;;3.28;;
11964;SDS011;6042;41.326;19.826;2023-07-31T10:30:56;5.13;;;3.13;;
11964;SDS011;6042;41.326;19.826;2023-07-31T10:33:26;4.30;;;3.00;;
11964;SDS011;6042;41.326;19.826;2023-07-31T10:38:46;3.67;;;2.92;;
11964;SDS011;6042;41.326;19.826;2023-07-31T10:41:19;5.53;;;3.17;;
11964;SDS011;6042;41.326;19.826;2023-07-31T10:43:57;2.70;;;2.50;;
11964;SDS011;6042;41.326;19.826;2023-07-31T10:46:27;5.82;;;3.17;;
11964;SDS011;6042;41.326;19.826;2023-07-31T10:48:57;5.80;;;3.10;;
11964;SDS011;6042;41.326;19.826;2023-07-31T10:51:38;3.80;;;3.08;;
11964;SDS011;6042;41.326;19.826;2023-07-31T10:54:10;3.95;;;3.00;;
11964;SDS011;6042;41.326;19.826;2023-07-31T10:56:39;4.82;;;3.47;;
11964;SDS011;6042;41.326;19.826;2023-07-31T10:59:12;5.22;;;3.72;;
11964;SDS011;6042;41.326;19.826;2023-07-31T11:01:50;7.47;;;5.00;;
11964;SDS011;6042;41.326;19.826;2023-07-31T11:04:23;4.90;;;4.50;;
11964;SDS011;6042;41.326;19.826;2023-07-31T11:06:57;4.20;;;3.80;;
11964;SDS011;6042;41.326;19.826;2023-07-31T11:09:28;5.63;;;3.78;;
11964;SDS011;6042;41.326;19.826;2023-07-31T11:11:59;4.60;;;3.35;;
11964;SDS011;6042;41.326;19.826;2023-07-31T11:14:29;4.22;;;3.58;;
11964;SDS011;6042;41.326;19.826;2023-07-31T11:16:59;3.03;;;2.70;;
11964;SDS011;6042;41.326;19.826;2023-07-31T11:19:33;2.80;;;2.60;;
11964;SDS011;6042;41.326;19.826;2023-07-31T11:22:07;3.33;;;3.00;;
11964;SDS011;6042;41.326;19.826;2023-07-31T11:24:35;5.57;;;3.22;;
11964;SDS011;6042;41.326;19.826;2023-07-31T11:27:07;3.17;;;2.80;;
11964;SDS011;6042;41.326;19.826;2023-07-31T11:29:36;9.40;;;2.72;;
11964;SDS011;6042;41.326;19.826;2023-07-31T11:32:05;6.13;;;3.05;;
11964;SDS011;6042;41.326;19.826;2023-07-31T11:34:51;4.65;;;2.80;;
11964;SDS011;6042;41.326;19.826;2023-07-31T11:37:22;3.22;;;2.97;;
11964;SDS011;6042;41.326;19.826;2023-07-31T11:40:00;3.58;;;2.88;;
11964;SDS011;6042;41.326;19.826;2023-07-31T11:42:31;2.92;;;2.72;;
11964;SDS011;6042;41.326;19.826;2023-07-31T11:45:01;4.05;;;3.42;;
11964;SDS011;6042;41.326;19.826;2023-07-31T11:47:32;3.00;;;2.70;;
11964;SDS011;6042;41.326;19.826;2023-07-31T11:50:02;5.20;;;3.78;;
11964;SDS011;6042;41.326;19.826;2023-07-31T11:52:34;6.63;;;3.58;;
11964;SDS011;6042;41.326;19.826;2023-07-31T11:55:06;5.80;;;2.63;;
11964;SDS011;6042;41.326;19.826;2023-07-31T11:57:37;4.28;;;2.78;;
11964;SDS011;6042;41.326;19.826;2023-07-31T12:00:08;2.67;;;2.45;;
11964;SDS011;6042;41.326;19.826;2023-07-31T12:02:39;2.85;;;2.38;;
11964;SDS011;6042;41.326;19.826;2023-07-31T12:05:10;4.13;;;2.60;;
11964;SDS011;6042;41.326;19.826;2023-07-31T12:07:48;3.55;;;2.53;;
11964;SDS011;6042;41.326;19.826;2023-07-31T12:10:26;2.83;;;2.35;;
11964;SDS011;6042;41.326;19.826;2023-07-31T12:13:01;3.35;;;2.60;;
11964;SDS011;6042;41.326;19.826;2023-07-31T12:15:34;3.70;;;2.50;;
11964;SDS011;6042;41.326;19.826;2023-07-31T12:18:07;2.25;;;2.15;;
11964;SDS011;6042;41.326;19.826;2023-07-31T12:20:41;3.85;;;2.60;;
11964;SDS011;6042;41.326;19.826;2023-07-31T12:23:16;3.65;;;2.67;;
11964;SDS011;6042;41.326;19.826;2023-07-31T12:25:45;3.95;;;2.30;;
11964;SDS011;6042;41.326;19.826;2023-07-31T12:28:15;4.75;;;2.17;;
11964;SDS011;6042;41.326;19.826;2023-07-31T12:30:50;3.22;;;2.45;;
11964;SDS011;6042;41.326;19.826;2023-07-31T12:33:21;5.38;;;2.38;;
11964;SDS011;6042;41.326;19.826;2023-07-31T12:35:53;3.25;;;2.50;;
11964;SDS011;6042;41.326;19.826;2023-07-31T12:38:25;5.70;;;2.25;;
11964;SDS011;6042;41.326;19.826;2023-07-31T12:40:54;2.78;;;2.50;;
11964;SDS011;6042;41.326;19.826;2023-07-31T12:43:22;2.97;;;2.38;;
11964;SDS011;6042;41.326;19.826;2023-07-31T12:45:51;5.60;;;2.28;;
11964;SDS011;6042;41.326;19.826;2023-07-31T12:48:23;2.85;;;2.22;;
11964;SDS011;6042;41.326;19.826;2023-07-31T12:50:51;3.38;;;2.70;;
11964;SDS011;6042;41.326;19.826;2023-07-31T12:53:20;2.72;;;2.10;;
11964;SDS011;6042;41.326;19.826;2023-07-31T12:55:50;2.53;;;2.22;;
11964;SDS011;6042;41.326;19.826;2023-07-31T12:58:21;4.75;;;2.70;;
11964;SDS011;6042;41.326;19.826;2023-07-31T13:00:49;3.97;;;2.65;;
11964;SDS011;6042;41.326;19.826;2023-07-31T13:03:18;2.47;;;2.28;;
11964;SDS011;6042;41.326;19.826;2023-07-31T13:05:48;4.13;;;2.05;;
11964;SDS011;6042;41.326;19.826;2023-07-31T13:08:19;3.25;;;2.20;;
11964;SDS011;6042;41.326;19.826;2023-07-31T13:10:49;2.72;;;2.50;;
11964;SDS011;6042;41.326;19.826;2023-07-31T13:13:18;2.58;;;2.38;;
11964;SDS011;6042;41.326;19.826;2023-07-31T13:15:47;2.55;;;2.35;;
11964;SDS011;6042;41.326;19.826;2023-07-31T13:18:16;2.85;;;1.83;;
11964;SDS011;6042;41.326;19.826;2023-07-31T13:20:45;2.70;;;2.17;;
11964;SDS011;6042;41.326;19.826;2023-07-31T13:23:13;2.03;;;1.80;;
11964;SDS011;6042;41.326;19.826;2023-07-31T13:25:42;3.15;;;2.47;;
11964;SDS011;6042;41.326;19.826;2023-07-31T13:28:13;1.80;;;1.70;;
11964;SDS011;6042;41.326;19.826;2023-07-31T13:30:42;2.63;;;2.15;;
11964;SDS011;6042;41.326;19.826;2023-07-31T13:33:10;3.67;;;1.85;;
11964;SDS011;6042;41.326;19.826;2023-07-31T13:35:59;1.67;;;1.58;;
11964;SDS011;6042;41.326;19.826;2023-07-31T13:38:27;1.95;;;1.63;;
11964;SDS011;6042;41.326;19.826;2023-07-31T13:40:56;2.63;;;1.92;;
11964;SDS011;6042;41.326;19.826;2023-07-31T13:43:26;2.50;;;1.88;;
11964;SDS011;6042;41.326;19.826;2023-07-31T13:45:55;1.95;;;1.83;;
11964;SDS011;6042;41.326;19.826;2023-07-31T13:48:23;3.92;;;1.85;;
11964;SDS011;6042;41.326;19.826;2023-07-31T13:50:52;3.03;;;1.73;;
11964;SDS011;6042;41.326;19.826;2023-07-31T13:53:21;2.53;;;1.92;;
11964;SDS011;6042;41.326;19.826;2023-07-31T13:55:49;2.20;;;2.00;;
11964;SDS011;6042;41.326;19.826;2023-07-31T13:58:18;3.55;;;2.00;;
11964;SDS011;6042;41.326;19.826;2023-07-31T14:00:48;1.77;;;1.67;;
11964;SDS011;6042;41.326;19.826;2023-07-31T14:03:20;2.55;;;1.83;;
11964;SDS011;6042;41.326;19.826;2023-07-31T14:05:49;3.03;;;1.90;;
11964;SDS011;6042;41.326;19.826;2023-07-31T14:08:18;4.68;;;2.10;;
11964;SDS011;6042;41.326;19.826;2023-07-31T14:10:47;3.03;;;1.90;;
11964;SDS011;6042;41.326;19.826;2023-07-31T14:13:16;2.60;;;2.40;;
11964;SDS011;6042;41.326;19.826;2023-07-31T14:15:44;3.70;;;3.03;;
11964;SDS011;6042;41.326;19.826;2023-07-31T14:18:14;3.88;;;3.10;;
11964;SDS011;6042;41.326;19.826;2023-07-31T14:20:43;4.47;;;3.03;;
11964;SDS011;6042;41.326;19.826;2023-07-31T14:23:12;5.53;;;3.50;;
11964;SDS011;6042;41.326;19.826;2023-07-31T14:25:40;5.55;;;3.75;;
11964;SDS011;6042;41.326;19.826;2023-07-31T14:28:09;4.18;;;3.60;;
11964;SDS011;6042;41.326;19.826;2023-07-31T14:30:37;3.72;;;2.95;;
11964;SDS011;6042;41.326;19.826;2023-07-31T14:33:06;6.60;;;3.60;;
11964;SDS011;6042;41.326;19.826;2023-07-31T14:35:36;4.13;;;3.50;;
11964;SDS011;6042;41.326;19.826;2023-07-31T14:38:06;7.40;;;3.65;;
11964;SDS011;6042;41.326;19.826;2023-07-31T14:40:34;8.73;;;3.95;;
11964;SDS011;6042;41.326;19.826;2023-07-31T14:43:05;7.18;;;3.30;;
11964;SDS011;6042;41.326;19.826;2023-07-31T14:45:33;6.45;;;3.70;;
11964;SDS011;6042;41.326;19.826;2023-07-31T14:48:02;7.32;;;3.60;;
11964;SDS011;6042;41.326;19.826;2023-07-31T14:50:31;3.40;;;3.10;;
11964;SDS011;6042;41.326;19.826;2023-07-31T14:53:01;5.05;;;3.83;;
11964;SDS011;6042;41.326;19.826;2023-07-31T14:55:30;6.97;;;3.90;;
11964;SDS011;6042;41.326;19.826;2023-07-31T14:57:58;6.20;;;4.63;;
11964;SDS011;6042;41.326;19.826;2023-07-31T15:00:27;8.43;;;4.35;;
11964;SDS011;6042;41.326;19.826;2023-07-31T15:02:56;6.50;;;4.75;;
11964;SDS011;6042;41.326;19.826;2023-07-31T15:05:25;7.10;;;4.30;;
11964;SDS011;6042;41.326;19.826;2023-07-31T15:07:53;6.60;;;5.15;;